sensor_id;sensor_type;location;lat;lon;timestamp;P1;durP1;ratioP1;P2;durP2;ratioP2
9948;SDS011;5013;51.840;8.276;2023-04-24T00:00:13;1.20;;;1.20;;
9948;SDS011;5013;51.840;8.276;2023-04-24T00:02:40;0.90;;;0.90;;
9948;SDS011;5013;51.840;8.276;2023-04-24T00:05:09;0.90;;;0.90;;
9948;SDS011;5013;51.840;8.276;2023-04-24T00:07:35;1.00;;;1.00;;
9948;SDS011;5013;51.840;8.276;2023-04-24T00:10:01;1.03;;;1.00;;
9948;SDS011;5013;51.840;8.276;2023-04-24T00:12:26;1.10;;;1.00;;
9948;SDS011;5013;51.840;8.276;2023-04-24T00:14:52;0.70;;;0.70;;
9948;SDS011;5013;51.840;8.276;2023-04-24T00:17:18;2.10;;;1.00;;
9948;SDS011;5013;51.840;8.276;2023-04-24T00:19:45;0.83;;;0.83;;
9948;SDS011;5013;51.840;8.276;2023-04-24T00:22:16;0.90;;;0.90;;
9948;SDS011;5013;51.840;8.276;2023-04-24T00:24:42;1.03;;;1.00;;
9948;SDS011;5013;51.840;8.276;2023-04-24T00:27:08;0.83;;;0.83;;
9948;SDS011;5013;51.840;8.276;2023-04-24T00:29:33;0.83;;;0.83;;
9948;SDS011;5013;51.840;8.276;2023-04-24T00:31:59;2.30;;;1.17;;
9948;SDS011;5013;51.840;8.276;2023-04-24T00:34:25;1.40;;;1.33;;
9948;SDS011;5013;51.840;8.276;2023-04-24T00:36:50;1.00;;;1.00;;
9948;SDS011;5013;51.840;8.276;2023-04-24T00:39:18;1.53;;;1.37;;
9948;SDS011;5013;51.840;8.276;2023-04-24T00:41:44;1.30;;;1.00;;
9948;SDS011;5013;51.840;8.276;2023-04-24T00:44:11;1.33;;;1.17;;
9948;SDS011;5013;51.840;8.276;2023-04-24T00:46:36;3.60;;;1.40;;
9948;SDS011;5013;51.840;8.276;2023-04-24T00:49:02;1.13;;;1.13;;
9948;SDS011;5013;51.840;8.276;2023-04-24T00:51:29;1.23;;;1.23;;
9948;SDS011;5013;51.840;8.276;2023-04-24T00:53:55;2.17;;;1.37;;
9948;SDS011;5013;51.840;8.276;2023-04-24T00:56:21;1.10;;;1.10;;
9948;SDS011;5013;51.840;8.276;2023-04-24T00:58:48;1.20;;;1.13;;
9948;SDS011;5013;51.840;8.276;2023-04-24T01:01:14;1.47;;;1.37;;
9948;SDS011;5013;51.840;8.276;2023-04-24T01:03:40;1.73;;;1.27;;
9948;SDS011;5013;51.840;8.276;2023-04-24T01:06:07;1.40;;;1.30;;
9948;SDS011;5013;51.840;8.276;2023-04-24T01:08:34;1.20;;;1.20;;
9948;SDS011;5013;51.840;8.276;2023-04-24T01:11:00;1.10;;;1.00;;
9948;SDS011;5013;51.840;8.276;2023-04-24T01:13:29;1.23;;;1.23;;
9948;SDS011;5013;51.840;8.276;2023-04-24T01:15:55;1.10;;;1.10;;
9948;SDS011;5013;51.840;8.276;2023-04-24T01:18:21;1.63;;;1.10;;
9948;SDS011;5013;51.840;8.276;2023-04-24T01:20:46;1.13;;;1.13;;
9948;SDS011;5013;51.840;8.276;2023-04-24T01:23:15;1.43;;;1.33;;
9948;SDS011;5013;51.840;8.276;2023-04-24T01:25:41;1.50;;;1.40;;
9948;SDS011;5013;51.840;8.276;2023-04-24T01:28:08;1.27;;;1.10;;
9948;SDS011;5013;51.840;8.276;2023-04-24T01:30:33;1.20;;;1.10;;
9948;SDS011;5013;51.840;8.276;2023-04-24T01:32:59;1.53;;;1.10;;
9948;SDS011;5013;51.840;8.276;2023-04-24T01:35:26;1.07;;;1.07;;
9948;SDS011;5013;51.840;8.276;2023-04-24T01:37:52;1.23;;;1.07;;
9948;SDS011;5013;51.840;8.276;2023-04-24T01:40:17;1.17;;;1.10;;
9948;SDS011;5013;51.840;8.276;2023-04-24T01:42:43;1.10;;;1.10;;
9948;SDS011;5013;51.840;8.276;2023-04-24T01:45:10;1.03;;;1.03;;
9948;SDS011;5013;51.840;8.276;2023-04-24T01:47:37;2.93;;;1.13;;
9948;SDS011;5013;51.840;8.276;2023-04-24T01:50:05;2.10;;;1.30;;
9948;SDS011;5013;51.840;8.276;2023-04-24T01:52:31;1.30;;;1.30;;
9948;SDS011;5013;51.840;8.276;2023-04-24T01:55:01;1.10;;;1.10;;
9948;SDS011;5013;51.840;8.276;2023-04-24T01:57:28;1.30;;;1.30;;
9948;SDS011;5013;51.840;8.276;2023-04-24T01:59:55;1.50;;;1.40;;
9948;SDS011;5013;51.840;8.276;2023-04-24T02:02:21;1.10;;;1.10;;
9948;SDS011;5013;51.840;8.276;2023-04-24T02:04:49;1.20;;;1.20;;
9948;SDS011;5013;51.840;8.276;2023-04-24T02:07:23;1.00;;;1.00;;
9948;SDS011;5013;51.840;8.276;2023-04-24T02:09:49;1.17;;;1.17;;
9948;SDS011;5013;51.840;8.276;2023-04-24T02:12:15;1.30;;;1.20;;
9948;SDS011;5013;51.840;8.276;2023-04-24T02:14:42;1.20;;;1.20;;
9948;SDS011;5013;51.840;8.276;2023-04-24T02:17:08;1.30;;;1.30;;
9948;SDS011;5013;51.840;8.276;2023-04-24T02:19:33;1.27;;;1.27;;
9948;SDS011;5013;51.840;8.276;2023-04-24T02:21:59;1.20;;;1.20;;
9948;SDS011;5013;51.840;8.276;2023-04-24T02:24:25;1.23;;;1.10;;
9948;SDS011;5013;51.840;8.276;2023-04-24T02:26:50;1.37;;;1.27;;
9948;SDS011;5013;51.840;8.276;2023-04-24T02:29:16;1.70;;;1.30;;
9948;SDS011;5013;51.840;8.276;2023-04-24T02:31:41;1.47;;;1.37;;
9948;SDS011;5013;51.840;8.276;2023-04-24T02:34:07;2.20;;;1.50;;
9948;SDS011;5013;51.840;8.276;2023-04-24T02:36:33;1.30;;;1.30;;
9948;SDS011;5013;51.840;8.276;2023-04-24T02:38:59;2.20;;;1.30;;
9948;SDS011;5013;51.840;8.276;2023-04-24T02:41:26;1.50;;;1.40;;
9948;SDS011;5013;51.840;8.276;2023-04-24T02:43:56;1.30;;;1.20;;
9948;SDS011;5013;51.840;8.276;2023-04-24T02:46:21;3.10;;;1.13;;
9948;SDS011;5013;51.840;8.276;2023-04-24T02:48:47;1.57;;;1.40;;
9948;SDS011;5013;51.840;8.276;2023-04-24T02:51:12;1.47;;;1.37;;
9948;SDS011;5013;51.840;8.276;2023-04-24T02:53:38;2.07;;;1.00;;
9948;SDS011;5013;51.840;8.276;2023-04-24T02:56:03;1.33;;;1.33;;
9948;SDS011;5013;51.840;8.276;2023-04-24T02:58:29;1.43;;;1.20;;
9948;SDS011;5013;51.840;8.276;2023-04-24T03:00:55;1.30;;;1.30;;
9948;SDS011;5013;51.840;8.276;2023-04-24T03:03:21;1.40;;;1.30;;
9948;SDS011;5013;51.840;8.276;2023-04-24T03:05:47;1.50;;;1.20;;
9948;SDS011;5013;51.840;8.276;2023-04-24T03:08:12;1.63;;;1.40;;
9948;SDS011;5013;51.840;8.276;2023-04-24T03:10:39;1.10;;;1.10;;
9948;SDS011;5013;51.840;8.276;2023-04-24T03:13:05;1.80;;;1.40;;
9948;SDS011;5013;51.840;8.276;2023-04-24T03:15:30;1.70;;;1.40;;
9948;SDS011;5013;51.840;8.276;2023-04-24T03:17:56;1.20;;;1.20;;
9948;SDS011;5013;51.840;8.276;2023-04-24T03:20:22;2.47;;;1.20;;
9948;SDS011;5013;51.840;8.276;2023-04-24T03:22:47;1.60;;;1.17;;
9948;SDS011;5013;51.840;8.276;2023-04-24T03:25:13;4.17;;;1.70;;
9948;SDS011;5013;51.840;8.276;2023-04-24T03:27:38;2.73;;;1.30;;
9948;SDS011;5013;51.840;8.276;2023-04-24T03:30:05;1.63;;;1.40;;
9948;SDS011;5013;51.840;8.276;2023-04-24T03:32:33;1.57;;;1.50;;
9948;SDS011;5013;51.840;8.276;2023-04-24T03:34:58;2.10;;;2.00;;
9948;SDS011;5013;51.840;8.276;2023-04-24T03:37:24;2.17;;;2.07;;
9948;SDS011;5013;51.840;8.276;2023-04-24T03:39:51;2.20;;;2.10;;
9948;SDS011;5013;51.840;8.276;2023-04-24T03:42:17;1.83;;;1.73;;
9948;SDS011;5013;51.840;8.276;2023-04-24T03:44:42;2.20;;;2.00;;
9948;SDS011;5013;51.840;8.276;2023-04-24T03:47:08;2.33;;;2.23;;
9948;SDS011;5013;51.840;8.276;2023-04-24T03:49:33;3.37;;;2.37;;
9948;SDS011;5013;51.840;8.276;2023-04-24T03:51:59;2.30;;;2.20;;
9948;SDS011;5013;51.840;8.276;2023-04-24T03:54:25;2.60;;;2.50;;
9948;SDS011;5013;51.840;8.276;2023-04-24T03:56:50;2.40;;;2.20;;
9948;SDS011;5013;51.840;8.276;2023-04-24T03:59:16;2.57;;;2.47;;
9948;SDS011;5013;51.840;8.276;2023-04-24T04:01:42;2.60;;;2.50;;
9948;SDS011;5013;51.840;8.276;2023-04-24T04:04:07;2.60;;;2.40;;
9948;SDS011;5013;51.840;8.276;2023-04-24T04:06:33;2.60;;;2.40;;
9948;SDS011;5013;51.840;8.276;2023-04-24T04:08:59;2.70;;;2.50;;
9948;SDS011;5013;51.840;8.276;2023-04-24T04:11:25;2.63;;;2.53;;
9948;SDS011;5013;51.840;8.276;2023-04-24T04:13:50;3.17;;;2.30;;
9948;SDS011;5013;51.840;8.276;2023-04-24T04:16:16;2.83;;;2.10;;
9948;SDS011;5013;51.840;8.276;2023-04-24T04:18:42;2.93;;;2.80;;
9948;SDS011;5013;51.840;8.276;2023-04-24T04:21:08;2.93;;;2.73;;
9948;SDS011;5013;51.840;8.276;2023-04-24T04:23:34;3.70;;;3.50;;
9948;SDS011;5013;51.840;8.276;2023-04-24T04:26:00;3.60;;;3.30;;
9948;SDS011;5013;51.840;8.276;2023-04-24T04:28:26;4.30;;;4.00;;
9948;SDS011;5013;51.840;8.276;2023-04-24T04:30:51;4.80;;;4.50;;
9948;SDS011;5013;51.840;8.276;2023-04-24T04:33:20;4.73;;;4.33;;
9948;SDS011;5013;51.840;8.276;2023-04-24T04:35:46;8.30;;;4.90;;
9948;SDS011;5013;51.840;8.276;2023-04-24T04:38:14;5.83;;;5.30;;
9948;SDS011;5013;51.840;8.276;2023-04-24T04:40:40;6.87;;;6.27;;
9948;SDS011;5013;51.840;8.276;2023-04-24T04:43:06;8.00;;;7.20;;
9948;SDS011;5013;51.840;8.276;2023-04-24T04:45:31;9.37;;;8.37;;
9948;SDS011;5013;51.840;8.276;2023-04-24T04:47:58;8.63;;;7.83;;
9948;SDS011;5013;51.840;8.276;2023-04-24T04:50:25;9.77;;;8.87;;
9948;SDS011;5013;51.840;8.276;2023-04-24T04:52:51;9.10;;;8.10;;
9948;SDS011;5013;51.840;8.276;2023-04-24T04:55:17;9.27;;;8.47;;
9948;SDS011;5013;51.840;8.276;2023-04-24T04:57:44;11.37;;;10.17;;
9948;SDS011;5013;51.840;8.276;2023-04-24T05:00:10;10.83;;;9.73;;
9948;SDS011;5013;51.840;8.276;2023-04-24T05:02:37;10.80;;;9.80;;
9948;SDS011;5013;51.840;8.276;2023-04-24T05:05:03;11.70;;;10.43;;
9948;SDS011;5013;51.840;8.276;2023-04-24T05:07:28;12.53;;;10.70;;
9948;SDS011;5013;51.840;8.276;2023-04-24T05:09:54;14.80;;;11.50;;
9948;SDS011;5013;51.840;8.276;2023-04-24T05:12:20;15.27;;;12.20;;
9948;SDS011;5013;51.840;8.276;2023-04-24T05:14:46;14.63;;;13.23;;
9948;SDS011;5013;51.840;8.276;2023-04-24T05:17:12;16.23;;;13.83;;
9948;SDS011;5013;51.840;8.276;2023-04-24T05:19:37;15.77;;;14.30;;
9948;SDS011;5013;51.840;8.276;2023-04-24T05:22:03;16.13;;;13.57;;
9948;SDS011;5013;51.840;8.276;2023-04-24T05:24:31;16.23;;;14.53;;
9948;SDS011;5013;51.840;8.276;2023-04-24T05:26:58;21.60;;;15.53;;
9948;SDS011;5013;51.840;8.276;2023-04-24T05:29:23;16.87;;;14.87;;
9948;SDS011;5013;51.840;8.276;2023-04-24T05:31:50;15.73;;;13.97;;
9948;SDS011;5013;51.840;8.276;2023-04-24T05:34:15;14.90;;;13.60;;
9948;SDS011;5013;51.840;8.276;2023-04-24T05:36:41;20.20;;;14.97;;
9948;SDS011;5013;51.840;8.276;2023-04-24T05:39:07;15.03;;;13.53;;
9948;SDS011;5013;51.840;8.276;2023-04-24T05:41:33;15.40;;;13.77;;
9948;SDS011;5013;51.840;8.276;2023-04-24T05:43:59;14.03;;;12.27;;
9948;SDS011;5013;51.840;8.276;2023-04-24T05:46:24;15.20;;;13.33;;
9948;SDS011;5013;51.840;8.276;2023-04-24T05:48:50;15.97;;;14.43;;
9948;SDS011;5013;51.840;8.276;2023-04-24T05:51:16;15.57;;;13.87;;
9948;SDS011;5013;51.840;8.276;2023-04-24T05:53:41;14.57;;;12.93;;
9948;SDS011;5013;51.840;8.276;2023-04-24T05:56:07;14.93;;;13.50;;
9948;SDS011;5013;51.840;8.276;2023-04-24T05:58:32;16.90;;;14.47;;
9948;SDS011;5013;51.840;8.276;2023-04-24T06:00:58;14.77;;;13.37;;
9948;SDS011;5013;51.840;8.276;2023-04-24T06:03:25;17.50;;;14.70;;
9948;SDS011;5013;51.840;8.276;2023-04-24T06:05:52;15.10;;;13.60;;
9948;SDS011;5013;51.840;8.276;2023-04-24T06:08:18;13.73;;;12.43;;
9948;SDS011;5013;51.840;8.276;2023-04-24T06:10:44;15.97;;;13.00;;
9948;SDS011;5013;51.840;8.276;2023-04-24T06:13:10;15.80;;;14.30;;
9948;SDS011;5013;51.840;8.276;2023-04-24T06:15:36;17.17;;;13.30;;
9948;SDS011;5013;51.840;8.276;2023-04-24T06:18:01;14.90;;;13.37;;
9948;SDS011;5013;51.840;8.276;2023-04-24T06:20:27;15.63;;;12.30;;
9948;SDS011;5013;51.840;8.276;2023-04-24T06:22:53;16.00;;;13.43;;
9948;SDS011;5013;51.840;8.276;2023-04-24T06:25:19;19.47;;;13.97;;
9948;SDS011;5013;51.840;8.276;2023-04-24T06:27:45;19.30;;;14.10;;
9948;SDS011;5013;51.840;8.276;2023-04-24T06:30:11;16.50;;;14.17;;
9948;SDS011;5013;51.840;8.276;2023-04-24T06:32:37;16.13;;;14.17;;
9948;SDS011;5013;51.840;8.276;2023-04-24T06:35:03;14.93;;;13.43;;
9948;SDS011;5013;51.840;8.276;2023-04-24T06:37:29;15.97;;;14.37;;
9948;SDS011;5013;51.840;8.276;2023-04-24T06:39:55;15.27;;;13.63;;
9948;SDS011;5013;51.840;8.276;2023-04-24T06:42:20;16.70;;;14.83;;
9948;SDS011;5013;51.840;8.276;2023-04-24T06:44:46;14.63;;;13.13;;
9948;SDS011;5013;51.840;8.276;2023-04-24T06:47:12;14.37;;;12.93;;
9948;SDS011;5013;51.840;8.276;2023-04-24T06:49:38;17.67;;;13.20;;
9948;SDS011;5013;51.840;8.276;2023-04-24T06:52:04;14.53;;;12.13;;
9948;SDS011;5013;51.840;8.276;2023-04-24T06:54:31;18.67;;;12.10;;
9948;SDS011;5013;51.840;8.276;2023-04-24T06:56:57;17.27;;;12.03;;
9948;SDS011;5013;51.840;8.276;2023-04-24T06:59:23;13.70;;;11.80;;
9948;SDS011;5013;51.840;8.276;2023-04-24T07:01:50;11.63;;;10.53;;
9948;SDS011;5013;51.840;8.276;2023-04-24T07:04:18;14.23;;;11.53;;
9948;SDS011;5013;51.840;8.276;2023-04-24T07:06:47;10.57;;;9.57;;
9948;SDS011;5013;51.840;8.276;2023-04-24T07:09:16;9.67;;;8.77;;
9948;SDS011;5013;51.840;8.276;2023-04-24T07:11:43;10.67;;;9.57;;
9948;SDS011;5013;51.840;8.276;2023-04-24T07:14:09;10.23;;;9.20;;
9948;SDS011;5013;51.840;8.276;2023-04-24T07:16:35;10.07;;;8.07;;
9948;SDS011;5013;51.840;8.276;2023-04-24T07:19:01;8.10;;;7.37;;
9948;SDS011;5013;51.840;8.276;2023-04-24T07:21:26;8.37;;;7.53;;
9948;SDS011;5013;51.840;8.276;2023-04-24T07:23:52;8.80;;;7.77;;
9948;SDS011;5013;51.840;8.276;2023-04-24T07:26:19;7.40;;;6.73;;
9948;SDS011;5013;51.840;8.276;2023-04-24T07:28:45;7.50;;;6.77;;
9948;SDS011;5013;51.840;8.276;2023-04-24T07:31:11;7.67;;;6.90;;
9948;SDS011;5013;51.840;8.276;2023-04-24T07:33:37;6.80;;;6.20;;
9948;SDS011;5013;51.840;8.276;2023-04-24T07:36:03;6.63;;;6.07;;
9948;SDS011;5013;51.840;8.276;2023-04-24T07:38:29;7.40;;;6.80;;
9948;SDS011;5013;51.840;8.276;2023-04-24T07:40:56;7.37;;;6.67;;
9948;SDS011;5013;51.840;8.276;2023-04-24T07:43:21;6.40;;;5.80;;
9948;SDS011;5013;51.840;8.276;2023-04-24T07:45:48;6.80;;;6.20;;
9948;SDS011;5013;51.840;8.276;2023-04-24T07:48:15;6.40;;;5.90;;
9948;SDS011;5013;51.840;8.276;2023-04-24T07:50:41;6.20;;;5.80;;
9948;SDS011;5013;51.840;8.276;2023-04-24T07:53:07;9.00;;;6.00;;
9948;SDS011;5013;51.840;8.276;2023-04-24T07:55:32;6.40;;;5.77;;
9948;SDS011;5013;51.840;8.276;2023-04-24T07:57:58;5.00;;;4.70;;
9948;SDS011;5013;51.840;8.276;2023-04-24T08:00:24;5.67;;;5.17;;
9948;SDS011;5013;51.840;8.276;2023-04-24T08:02:49;5.40;;;5.00;;
9948;SDS011;5013;51.840;8.276;2023-04-24T08:05:15;4.97;;;4.67;;
9948;SDS011;5013;51.840;8.276;2023-04-24T08:07:41;4.97;;;4.77;;
9948;SDS011;5013;51.840;8.276;2023-04-24T08:10:11;4.97;;;4.53;;
9948;SDS011;5013;51.840;8.276;2023-04-24T08:12:37;4.00;;;3.70;;
9948;SDS011;5013;51.840;8.276;2023-04-24T08:15:03;4.60;;;3.60;;
9948;SDS011;5013;51.840;8.276;2023-04-24T08:17:30;3.70;;;3.50;;
9948;SDS011;5013;51.840;8.276;2023-04-24T08:19:55;7.23;;;3.63;;
9948;SDS011;5013;51.840;8.276;2023-04-24T08:22:26;3.10;;;3.00;;
9948;SDS011;5013;51.840;8.276;2023-04-24T08:24:52;3.43;;;3.23;;
9948;SDS011;5013;51.840;8.276;2023-04-24T08:27:18;3.67;;;3.37;;
9948;SDS011;5013;51.840;8.276;2023-04-24T08:29:43;3.20;;;3.00;;
9948;SDS011;5013;51.840;8.276;2023-04-24T08:32:09;3.93;;;3.73;;
9948;SDS011;5013;51.840;8.276;2023-04-24T08:34:35;3.93;;;3.67;;
9948;SDS011;5013;51.840;8.276;2023-04-24T08:37:00;3.53;;;3.07;;
9948;SDS011;5013;51.840;8.276;2023-04-24T08:39:27;3.70;;;3.50;;
9948;SDS011;5013;51.840;8.276;2023-04-24T08:41:52;10.00;;;3.87;;
9948;SDS011;5013;51.840;8.276;2023-04-24T08:44:18;3.73;;;3.53;;
9948;SDS011;5013;51.840;8.276;2023-04-24T08:46:44;3.37;;;2.70;;
9948;SDS011;5013;51.840;8.276;2023-04-24T08:49:13;3.00;;;2.90;;
9948;SDS011;5013;51.840;8.276;2023-04-24T08:51:39;2.70;;;2.60;;
9948;SDS011;5013;51.840;8.276;2023-04-24T08:54:04;4.23;;;3.17;;
9948;SDS011;5013;51.840;8.276;2023-04-24T08:56:32;4.93;;;3.10;;
9948;SDS011;5013;51.840;8.276;2023-04-24T08:58:59;2.97;;;2.80;;
9948;SDS011;5013;51.840;8.276;2023-04-24T09:01:25;2.73;;;2.63;;
9948;SDS011;5013;51.840;8.276;2023-04-24T09:03:53;2.03;;;1.93;;
9948;SDS011;5013;51.840;8.276;2023-04-24T09:06:20;2.10;;;2.00;;
9948;SDS011;5013;51.840;8.276;2023-04-24T09:08:48;1.70;;;1.70;;
9948;SDS011;5013;51.840;8.276;2023-04-24T09:11:17;2.13;;;2.07;;
9948;SDS011;5013;51.840;8.276;2023-04-24T09:13:43;1.70;;;1.70;;
9948;SDS011;5013;51.840;8.276;2023-04-24T09:16:08;1.63;;;1.63;;
9948;SDS011;5013;51.840;8.276;2023-04-24T09:18:34;2.20;;;2.10;;
9948;SDS011;5013;51.840;8.276;2023-04-24T09:21:04;2.23;;;2.13;;
9948;SDS011;5013;51.840;8.276;2023-04-24T09:23:33;1.90;;;1.90;;
9948;SDS011;5013;51.840;8.276;2023-04-24T09:25:59;1.70;;;1.70;;
9948;SDS011;5013;51.840;8.276;2023-04-24T09:28:32;2.00;;;1.90;;
9948;SDS011;5013;51.840;8.276;2023-04-24T09:31:09;2.37;;;2.30;;
9948;SDS011;5013;51.840;8.276;2023-04-24T09:33:36;1.93;;;1.83;;
9948;SDS011;5013;51.840;8.276;2023-04-24T09:36:02;1.63;;;1.63;;
9948;SDS011;5013;51.840;8.276;2023-04-24T09:38:34;1.70;;;1.70;;
9948;SDS011;5013;51.840;8.276;2023-04-24T09:41:02;2.00;;;1.90;;
9948;SDS011;5013;51.840;8.276;2023-04-24T09:43:30;1.63;;;1.53;;
9948;SDS011;5013;51.840;8.276;2023-04-24T09:45:56;1.50;;;1.50;;
9948;SDS011;5013;51.840;8.276;2023-04-24T09:48:30;1.50;;;1.40;;
9948;SDS011;5013;51.840;8.276;2023-04-24T09:50:56;1.40;;;1.40;;
9948;SDS011;5013;51.840;8.276;2023-04-24T09:53:25;1.10;;;1.10;;
9948;SDS011;5013;51.840;8.276;2023-04-24T09:55:51;1.30;;;1.20;;
9948;SDS011;5013;51.840;8.276;2023-04-24T09:58:18;1.40;;;1.30;;
9948;SDS011;5013;51.840;8.276;2023-04-24T10:00:49;1.53;;;1.33;;
9948;SDS011;5013;51.840;8.276;2023-04-24T10:03:18;1.20;;;1.10;;
9948;SDS011;5013;51.840;8.276;2023-04-24T10:05:45;1.43;;;1.43;;
9948;SDS011;5013;51.840;8.276;2023-04-24T10:08:12;1.23;;;1.13;;
9948;SDS011;5013;51.840;8.276;2023-04-24T10:10:39;1.40;;;1.40;;
9948;SDS011;5013;51.840;8.276;2023-04-24T10:13:07;2.50;;;1.63;;
9948;SDS011;5013;51.840;8.276;2023-04-24T10:15:34;1.20;;;1.20;;
9948;SDS011;5013;51.840;8.276;2023-04-24T10:18:01;4.63;;;1.30;;
9948;SDS011;5013;51.840;8.276;2023-04-24T10:20:29;1.57;;;1.47;;
9948;SDS011;5013;51.840;8.276;2023-04-24T10:22:56;1.20;;;1.20;;
9948;SDS011;5013;51.840;8.276;2023-04-24T10:25:24;1.27;;;1.20;;
9948;SDS011;5013;51.840;8.276;2023-04-24T10:27:51;1.50;;;1.50;;
9948;SDS011;5013;51.840;8.276;2023-04-24T10:30:18;1.20;;;1.20;;
9948;SDS011;5013;51.840;8.276;2023-04-24T10:32:44;1.00;;;1.00;;
9948;SDS011;5013;51.840;8.276;2023-04-24T10:35:14;2.03;;;0.90;;
9948;SDS011;5013;51.840;8.276;2023-04-24T10:37:44;1.10;;;1.10;;
9948;SDS011;5013;51.840;8.276;2023-04-24T10:40:16;1.07;;;1.07;;
9948;SDS011;5013;51.840;8.276;2023-04-24T10:42:43;1.63;;;1.03;;
9948;SDS011;5013;51.840;8.276;2023-04-24T10:45:16;1.10;;;1.10;;
9948;SDS011;5013;51.840;8.276;2023-04-24T10:47:43;1.20;;;1.20;;
9948;SDS011;5013;51.840;8.276;2023-04-24T10:50:29;1.40;;;1.40;;
9948;SDS011;5013;51.840;8.276;2023-04-24T10:53:18;1.33;;;1.27;;
9948;SDS011;5013;51.840;8.276;2023-04-24T10:56:07;1.60;;;1.50;;
9948;SDS011;5013;51.840;8.276;2023-04-24T10:58:42;1.90;;;1.90;;
9948;SDS011;5013;51.840;8.276;2023-04-24T11:01:32;1.60;;;1.60;;
9948;SDS011;5013;51.840;8.276;2023-04-24T11:04:02;2.40;;;2.20;;
9948;SDS011;5013;51.840;8.276;2023-04-24T11:06:31;2.67;;;2.50;;
9948;SDS011;5013;51.840;8.276;2023-04-24T11:09:08;2.67;;;2.57;;
9948;SDS011;5013;51.840;8.276;2023-04-24T11:11:44;3.30;;;3.10;;
9948;SDS011;5013;51.840;8.276;2023-04-24T11:14:13;3.73;;;2.90;;
9948;SDS011;5013;51.840;8.276;2023-04-24T11:16:44;3.10;;;3.00;;
9948;SDS011;5013;51.840;8.276;2023-04-24T11:26:56;3.37;;;2.50;;
9948;SDS011;5013;51.840;8.276;2023-04-24T11:29:38;4.27;;;2.87;;
9948;SDS011;5013;51.840;8.276;2023-04-24T11:32:16;2.50;;;2.33;;
9948;SDS011;5013;51.840;8.276;2023-04-24T11:34:49;3.23;;;2.50;;
9948;SDS011;5013;51.840;8.276;2023-04-24T11:37:16;3.33;;;2.87;;
9948;SDS011;5013;51.840;8.276;2023-04-24T11:39:42;4.43;;;4.03;;
9948;SDS011;5013;51.840;8.276;2023-04-24T11:42:08;4.50;;;4.10;;
9948;SDS011;5013;51.840;8.276;2023-04-24T11:44:34;4.60;;;4.23;;
9948;SDS011;5013;51.840;8.276;2023-04-24T11:47:04;5.43;;;4.27;;
9948;SDS011;5013;51.840;8.276;2023-04-24T11:49:30;4.33;;;3.40;;
9948;SDS011;5013;51.840;8.276;2023-04-24T11:51:56;4.50;;;4.10;;
9948;SDS011;5013;51.840;8.276;2023-04-24T11:54:22;3.73;;;3.43;;
9948;SDS011;5013;51.840;8.276;2023-04-24T11:56:47;6.90;;;3.40;;
9948;SDS011;5013;51.840;8.276;2023-04-24T11:59:15;2.80;;;2.67;;
9948;SDS011;5013;51.840;8.276;2023-04-24T12:01:46;2.60;;;2.40;;
9948;SDS011;5013;51.840;8.276;2023-04-24T12:04:13;3.33;;;2.90;;
9948;SDS011;5013;51.840;8.276;2023-04-24T12:06:40;3.00;;;2.90;;
9948;SDS011;5013;51.840;8.276;2023-04-24T12:09:23;5.90;;;4.27;;
9948;SDS011;5013;51.840;8.276;2023-04-24T12:11:53;9.00;;;6.50;;
9948;SDS011;5013;51.840;8.276;2023-04-24T12:14:22;5.40;;;4.57;;
9948;SDS011;5013;51.840;8.276;2023-04-24T12:16:49;10.53;;;7.00;;
9948;SDS011;5013;51.840;8.276;2023-04-24T12:19:20;9.10;;;6.07;;
9948;SDS011;5013;51.840;8.276;2023-04-24T12:22:08;7.93;;;5.90;;
9948;SDS011;5013;51.840;8.276;2023-04-24T12:24:32;7.10;;;5.53;;
9948;SDS011;5013;51.840;8.276;2023-04-24T12:26:58;5.90;;;5.10;;
9948;SDS011;5013;51.840;8.276;2023-04-24T12:29:26;8.50;;;5.60;;
9948;SDS011;5013;51.840;8.276;2023-04-24T12:31:51;6.03;;;5.47;;
9948;SDS011;5013;51.840;8.276;2023-04-24T12:34:20;6.33;;;5.20;;
9948;SDS011;5013;51.840;8.276;2023-04-24T12:36:47;6.73;;;5.10;;
9948;SDS011;5013;51.840;8.276;2023-04-24T12:39:17;7.57;;;5.90;;
9948;SDS011;5013;51.840;8.276;2023-04-24T12:42:25;7.83;;;6.57;;
9948;SDS011;5013;51.840;8.276;2023-04-24T12:44:36;10.97;;;6.90;;
9948;SDS011;5013;51.840;8.276;2023-04-24T12:47:02;11.13;;;6.53;;
9948;SDS011;5013;51.840;8.276;2023-04-24T12:49:29;13.53;;;6.47;;
9948;SDS011;5013;51.840;8.276;2023-04-24T12:51:55;17.07;;;7.33;;
9948;SDS011;5013;51.840;8.276;2023-04-24T12:54:21;8.70;;;5.73;;
9948;SDS011;5013;51.840;8.276;2023-04-24T12:56:47;16.67;;;7.27;;
9948;SDS011;5013;51.840;8.276;2023-04-24T12:59:13;16.23;;;8.50;;
9948;SDS011;5013;51.840;8.276;2023-04-24T13:01:38;10.40;;;7.40;;
9948;SDS011;5013;51.840;8.276;2023-04-24T13:04:05;14.17;;;7.20;;
9948;SDS011;5013;51.840;8.276;2023-04-24T13:06:30;11.93;;;6.73;;
9948;SDS011;5013;51.840;8.276;2023-04-24T13:08:56;14.03;;;7.97;;
9948;SDS011;5013;51.840;8.276;2023-04-24T13:11:22;12.03;;;6.60;;
9948;SDS011;5013;51.840;8.276;2023-04-24T13:13:49;10.93;;;6.43;;
9948;SDS011;5013;51.840;8.276;2023-04-24T13:16:14;19.10;;;8.57;;
9948;SDS011;5013;51.840;8.276;2023-04-24T13:18:40;12.17;;;6.40;;
9948;SDS011;5013;51.840;8.276;2023-04-24T13:21:05;13.00;;;7.50;;
9948;SDS011;5013;51.840;8.276;2023-04-24T13:23:31;12.60;;;7.90;;
9948;SDS011;5013;51.840;8.276;2023-04-24T13:25:57;11.63;;;8.13;;
9948;SDS011;5013;51.840;8.276;2023-04-24T13:28:24;19.43;;;8.23;;
9948;SDS011;5013;51.840;8.276;2023-04-24T13:30:50;15.97;;;7.83;;
9948;SDS011;5013;51.840;8.276;2023-04-24T13:33:16;14.50;;;7.70;;
9948;SDS011;5013;51.840;8.276;2023-04-24T13:35:41;19.27;;;7.50;;
9948;SDS011;5013;51.840;8.276;2023-04-24T13:38:07;12.33;;;6.87;;
9948;SDS011;5013;51.840;8.276;2023-04-24T13:40:33;15.60;;;7.53;;
9948;SDS011;5013;51.840;8.276;2023-04-24T13:42:59;13.10;;;6.67;;
9948;SDS011;5013;51.840;8.276;2023-04-24T13:45:25;15.73;;;7.20;;
9948;SDS011;5013;51.840;8.276;2023-04-24T13:47:51;13.60;;;6.43;;
9948;SDS011;5013;51.840;8.276;2023-04-24T13:50:18;12.13;;;6.93;;
9948;SDS011;5013;51.840;8.276;2023-04-24T13:52:44;16.03;;;7.13;;
9948;SDS011;5013;51.840;8.276;2023-04-24T13:55:10;11.20;;;6.03;;
9948;SDS011;5013;51.840;8.276;2023-04-24T13:57:35;9.67;;;5.90;;
9948;SDS011;5013;51.840;8.276;2023-04-24T14:00:01;24.63;;;13.93;;
9948;SDS011;5013;51.840;8.276;2023-04-24T14:02:28;38.27;;;18.13;;
9948;SDS011;5013;51.840;8.276;2023-04-24T14:04:54;34.20;;;16.20;;
9948;SDS011;5013;51.840;8.276;2023-04-24T14:07:20;17.97;;;7.60;;
9948;SDS011;5013;51.840;8.276;2023-04-24T14:09:46;32.30;;;15.55;;
9948;SDS011;5013;51.840;8.276;2023-04-24T14:12:11;15.43;;;7.90;;
9948;SDS011;5013;51.840;8.276;2023-04-24T14:14:37;15.13;;;7.37;;
9948;SDS011;5013;51.840;8.276;2023-04-24T14:17:03;14.70;;;8.00;;
9948;SDS011;5013;51.840;8.276;2023-04-24T14:19:28;11.33;;;5.50;;
9948;SDS011;5013;51.840;8.276;2023-04-24T14:21:54;11.80;;;7.13;;
9948;SDS011;5013;51.840;8.276;2023-04-24T14:24:21;8.47;;;4.80;;
9948;SDS011;5013;51.840;8.276;2023-04-24T14:26:47;6.80;;;4.93;;
9948;SDS011;5013;51.840;8.276;2023-04-24T14:29:12;8.13;;;4.97;;
9948;SDS011;5013;51.840;8.276;2023-04-24T14:31:38;8.00;;;5.00;;
9948;SDS011;5013;51.840;8.276;2023-04-24T14:34:03;10.57;;;3.53;;
9948;SDS011;5013;51.840;8.276;2023-04-24T14:36:29;7.27;;;5.40;;
9948;SDS011;5013;51.840;8.276;2023-04-24T14:38:56;5.23;;;3.67;;
9948;SDS011;5013;51.840;8.276;2023-04-24T14:41:22;5.97;;;3.70;;
9948;SDS011;5013;51.840;8.276;2023-04-24T14:43:47;6.90;;;2.90;;
9948;SDS011;5013;51.840;8.276;2023-04-24T14:46:13;4.23;;;3.20;;
9948;SDS011;5013;51.840;8.276;2023-04-24T14:48:38;14.73;;;6.63;;
9948;SDS011;5013;51.840;8.276;2023-04-24T14:51:04;6.80;;;3.70;;
9948;SDS011;5013;51.840;8.276;2023-04-24T14:53:30;7.40;;;3.73;;
9948;SDS011;5013;51.840;8.276;2023-04-24T14:55:55;3.67;;;2.73;;
9948;SDS011;5013;51.840;8.276;2023-04-24T14:58:21;6.83;;;3.33;;
9948;SDS011;5013;51.840;8.276;2023-04-24T15:00:47;5.00;;;3.33;;
9948;SDS011;5013;51.840;8.276;2023-04-24T15:03:14;6.33;;;3.63;;
9948;SDS011;5013;51.840;8.276;2023-04-24T15:05:40;8.57;;;2.80;;
9948;SDS011;5013;51.840;8.276;2023-04-24T15:08:06;7.03;;;3.20;;
9948;SDS011;5013;51.840;8.276;2023-04-24T15:10:31;4.53;;;3.40;;
9948;SDS011;5013;51.840;8.276;2023-04-24T15:12:57;8.87;;;3.50;;
9948;SDS011;5013;51.840;8.276;2023-04-24T15:15:23;7.50;;;3.53;;